Time;durP1;ratioP1;P1;durP2;ratioP2;P2;SDS_P1;SDS_P2;PMS_P1;PMS_P2;Temp;Humidity;BMP_temperature;BMP_pressure;BME280_temperature;BME280_humidity;BME280_pressure;Samples;Min_cycle;Max_cycle;Signal;HPM_P1;HPM_P2
2023/08/08 00:01:05;;;;;;;0.50;0.50;;;12.80;99.90;;;;;;4983211;28;20078;-71
2023/08/08 00:03:31;;;;;;;0.38;0.38;;;12.90;99.90;;;;;;4971188;28;20038;-70
2023/08/08 00:05:56;;;;;;;0.77;0.77;;;13.00;99.90;;;;;;4975649;28;20047;-69
2023/08/08 00:08:22;;;;;;;1.70;1.15;;;12.80;99.90;;;;;;4981379;28;20052;-70
2023/08/08 00:10:48;;;;;;;0.65;0.65;;;12.70;99.90;;;;;;4983107;28;20353;-70
2023/08/08 00:13:13;;;;;;;0.88;0.80;;;12.80;99.90;;;;;;4984716;28;20038;-71
2023/08/08 00:15:39;;;;;;;0.40;0.40;;;13.00;99.90;;;;;;4970773;28;20038;-73
2023/08/08 00:18:05;;;;;;;0.90;0.90;;;13.70;99.90;;;;;;4986537;28;20494;-72
2023/08/08 00:20:31;;;;;;;0.43;0.43;;;12.90;99.90;;;;;;4972969;28;20097;-73
2023/08/08 00:22:56;;;;;;;0.60;0.60;;;13.00;99.90;;;;;;4970700;28;20039;-72
2023/08/08 00:25:22;;;;;;;0.70;0.70;;;12.80;99.90;;;;;;4970207;28;20094;-73
2023/08/08 00:27:49;;;;;;;0.38;0.38;;;13.20;99.90;;;;;;4981580;28;20043;-72
2023/08/08 00:30:15;;;;;;;0.70;0.70;;;13.30;99.90;;;;;;4979870;28;20113;-72
2023/08/08 00:32:40;;;;;;;0.30;0.30;;;13.00;99.90;;;;;;4969744;28;20126;-71
2023/08/08 00:35:07;;;;;;;0.43;0.43;;;13.30;99.90;;;;;;4983223;28;20064;-72
2023/08/08 00:37:32;;;;;;;0.40;0.40;;;13.00;99.90;;;;;;4990339;28;20046;-72
2023/08/08 00:39:58;;;;;;;0.40;0.40;;;13.20;99.90;;;;;;4984390;28;20049;-72
2023/08/08 00:42:24;;;;;;;0.32;0.32;;;12.90;99.90;;;;;;4981240;28;20038;-73
2023/08/08 00:44:50;;;;;;;0.40;0.40;;;13.30;99.90;;;;;;4989375;28;20050;-73
2023/08/08 00:47:15;;;;;;;0.40;0.40;;;13.10;99.90;;;;;;4973337;28;20092;-73
2023/08/08 00:49:43;;;;;;;0.30;0.30;;;13.30;99.90;;;;;;4975314;28;20479;-72
2023/08/08 00:52:10;;;;;;;0.40;0.40;;;13.30;99.90;;;;;;4981287;28;20043;-72
2023/08/08 00:54:35;;;;;;;0.40;0.40;;;13.10;99.90;;;;;;4978897;28;20058;-70
2023/08/08 00:57:01;;;;;;;0.80;0.80;;;13.40;99.90;;;;;;4978823;28;20492;-72
2023/08/08 00:59:27;;;;;;;0.50;0.50;;;13.30;99.90;;;;;;4987466;28;20516;-72
2023/08/08 01:01:53;;;;;;;0.40;0.40;;;13.30;99.90;;;;;;4982171;28;20414;-72
2023/08/08 01:04:19;;;;;;;0.40;0.40;;;13.40;99.90;;;;;;4982333;28;20057;-72
2023/08/08 01:07:01;;;;;;;0.82;0.82;;;13.40;99.90;;;;;;4992610;28;20368;-72
2023/08/08 01:09:45;;;;;;;0.50;0.50;;;13.40;99.90;;;;;;4985197;28;20042;-73
2023/08/08 01:12:14;;;;;;;0.30;0.30;;;13.50;99.90;;;;;;4988849;28;20038;-72
2023/08/08 01:14:43;;;;;;;0.40;0.40;;;13.70;99.90;;;;;;4973179;28;20039;-71
2023/08/08 01:17:10;;;;;;;0.40;0.40;;;13.40;99.90;;;;;;4998313;28;20053;-72
2023/08/08 01:19:36;;;;;;;0.88;0.80;;;13.80;99.90;;;;;;4970931;28;20517;-72
2023/08/08 01:22:06;;;;;;;0.50;0.50;;;13.50;99.90;;;;;;4981013;28;20502;-73
2023/08/08 01:24:36;;;;;;;0.40;0.40;;;13.60;99.90;;;;;;4989245;28;20046;-73
2023/08/08 01:27:03;;;;;;;0.60;0.60;;;13.60;99.90;;;;;;4963305;28;20039;-73
2023/08/08 01:29:28;;;;;;;0.98;0.68;;;13.40;99.90;;;;;;4974198;28;20121;-72
2023/08/08 01:31:54;;;;;;;0.40;0.40;;;13.60;99.90;;;;;;4980836;28;20066;-72
2023/08/08 01:34:21;;;;;;;0.40;0.40;;;13.40;99.90;;;;;;4978973;28;20030;-72
2023/08/08 01:36:49;;;;;;;0.40;0.40;;;13.50;99.90;;;;;;4968519;28;20042;-73
2023/08/08 01:39:20;;;;;;;0.90;0.90;;;13.60;99.90;;;;;;4984987;28;20455;-73
2023/08/08 01:41:48;;;;;;;0.47;0.47;;;13.70;99.90;;;;;;4984480;28;20069;-73
2023/08/08 01:44:14;;;;;;;0.28;0.28;;;13.50;99.90;;;;;;4980832;28;20510;-73
2023/08/08 01:46:40;;;;;;;0.43;0.43;;;13.60;99.90;;;;;;4993854;28;20031;-73
2023/08/08 01:49:06;;;;;;;0.60;0.60;;;13.60;99.90;;;;;;4978598;28;20237;-73
2023/08/08 01:51:31;;;;;;;0.60;0.60;;;13.50;99.90;;;;;;4979299;28;20050;-73
2023/08/08 01:53:57;;;;;;;0.77;0.77;;;13.30;99.90;;;;;;4981344;28;20047;-72
2023/08/08 01:56:23;;;;;;;0.77;0.77;;;13.50;99.90;;;;;;4963176;28;20396;-72
2023/08/08 01:58:48;;;;;;;0.43;0.43;;;13.40;99.90;;;;;;4980797;28;20065;-72
2023/08/08 02:01:14;;;;;;;0.55;0.55;;;13.50;99.90;;;;;;4961523;28;20039;-72
2023/08/08 02:03:40;;;;;;;0.47;0.47;;;13.60;99.90;;;;;;4997461;28;20494;-74
2023/08/08 02:06:05;;;;;;;0.40;0.40;;;13.40;99.90;;;;;;4979333;28;20030;-72
2023/08/08 02:08:31;;;;;;;0.55;0.55;;;13.50;99.90;;;;;;4981014;28;20030;-72
2023/08/08 02:10:57;;;;;;;0.40;0.40;;;13.50;99.90;;;;;;4988303;28;20061;-72
2023/08/08 02:13:23;;;;;;;0.57;0.57;;;13.40;99.90;;;;;;4987201;28;20085;-72
2023/08/08 02:15:49;;;;;;;0.30;0.30;;;13.10;99.90;;;;;;5001295;28;20046;-72
2023/08/08 02:18:14;;;;;;;0.35;0.35;;;13.50;99.90;;;;;;4984755;28;20038;-71
2023/08/08 02:20:40;;;;;;;0.75;0.70;;;13.40;99.90;;;;;;4978580;28;20048;-71
2023/08/08 02:23:06;;;;;;;0.50;0.50;;;13.40;99.90;;;;;;4984067;28;20125;-73
2023/08/08 02:25:31;;;;;;;0.90;0.85;;;13.40;99.90;;;;;;5004403;28;20069;-73
2023/08/08 02:27:57;;;;;;;0.63;0.60;;;13.40;99.90;;;;;;4987763;28;20216;-73
2023/08/08 02:30:23;;;;;;;0.40;0.40;;;13.50;99.90;;;;;;4987768;28;20037;-72
2023/08/08 02:32:49;;;;;;;0.50;0.50;;;13.40;99.90;;;;;;4987975;28;20048;-73
2023/08/08 02:35:14;;;;;;;0.60;0.60;;;13.40;99.90;;;;;;4995730;28;20563;-73
2023/08/08 02:37:40;;;;;;;0.50;0.50;;;13.70;99.90;;;;;;4987067;28;20501;-72
2023/08/08 02:40:07;;;;;;;0.40;0.40;;;13.30;99.90;;;;;;4981777;28;20096;-73
2023/08/08 02:42:33;;;;;;;0.40;0.40;;;13.50;99.90;;;;;;4987939;28;20046;-73
2023/08/08 02:44:59;;;;;;;0.60;0.60;;;13.50;99.90;;;;;;4987569;28;20486;-73
2023/08/08 02:47:24;;;;;;;0.40;0.40;;;13.50;99.90;;;;;;4987102;28;20044;-73
2023/08/08 02:49:50;;;;;;;0.40;0.40;;;13.50;99.90;;;;;;4988098;28;20050;-73
2023/08/08 02:52:16;;;;;;;0.40;0.40;;;13.40;99.90;;;;;;4987701;28;20164;-73
2023/08/08 02:54:42;;;;;;;0.55;0.55;;;13.40;99.90;;;;;;4987736;28;20042;-73
2023/08/08 02:57:10;;;;;;;0.35;0.35;;;13.40;99.90;;;;;;4984167;28;20042;-73
2023/08/08 02:59:36;;;;;;;0.30;0.30;;;13.60;99.90;;;;;;4986079;28;20050;-73
2023/08/08 03:02:03;;;;;;;1.00;1.00;;;13.50;99.90;;;;;;4982026;28;20037;-71
2023/08/08 03:04:29;;;;;;;0.50;0.50;;;13.50;99.90;;;;;;4970415;28;20046;-71
2023/08/08 03:06:55;;;;;;;0.40;0.40;;;13.50;99.90;;;;;;4988774;28;20099;-71
2023/08/08 03:09:21;;;;;;;0.65;0.65;;;13.60;99.90;;;;;;4972152;28;20471;-72
2023/08/08 03:11:47;;;;;;;0.38;0.38;;;13.50;99.90;;;;;;4982644;28;20167;-71
2023/08/08 03:14:13;;;;;;;0.63;0.63;;;13.50;99.90;;;;;;4984479;28;20031;-71
2023/08/08 03:16:38;;;;;;;0.73;0.73;;;13.50;99.90;;;;;;4984688;28;20053;-72
2023/08/08 03:19:04;;;;;;;0.82;0.82;;;13.60;99.90;;;;;;4970668;28;20069;-71
2023/08/08 03:21:30;;;;;;;0.40;0.40;;;13.50;99.90;;;;;;4976813;28;20031;-71
2023/08/08 03:23:56;;;;;;;0.63;0.63;;;13.70;99.90;;;;;;4977834;28;20504;-72
2023/08/08 03:26:22;;;;;;;0.50;0.50;;;13.60;99.90;;;;;;4985360;28;20441;-72
2023/08/08 03:28:50;;;;;;;0.60;0.60;;;13.60;99.90;;;;;;4980954;28;20039;-72
2023/08/08 03:31:17;;;;;;;0.65;0.65;;;13.60;99.90;;;;;;4981696;28;20089;-71
2023/08/08 03:33:43;;;;;;;0.50;0.50;;;13.60;99.90;;;;;;4973925;28;20049;-73
2023/08/08 03:36:09;;;;;;;0.60;0.60;;;13.60;99.90;;;;;;4967879;28;20042;-71
2023/08/08 03:38:36;;;;;;;0.43;0.43;;;13.70;99.90;;;;;;4976706;28;20049;-72
2023/08/08 03:41:01;;;;;;;0.57;0.57;;;13.50;99.90;;;;;;5002824;28;20050;-72
2023/08/08 03:43:27;;;;;;;0.40;0.40;;;13.50;99.90;;;;;;4981652;28;20034;-72
2023/08/08 03:45:53;;;;;;;0.50;0.50;;;13.60;99.90;;;;;;4983274;28;20042;-72
2023/08/08 03:48:18;;;;;;;1.08;1.00;;;13.60;99.90;;;;;;4979237;28;20584;-73
2023/08/08 03:50:46;;;;;;;0.63;0.63;;;13.60;99.90;;;;;;4983197;28;20039;-72
2023/08/08 03:53:12;;;;;;;0.60;0.60;;;13.50;99.90;;;;;;4971303;28;20058;-71
2023/08/08 03:55:38;;;;;;;0.70;0.70;;;14.00;99.90;;;;;;4986322;28;20088;-71
2023/08/08 03:58:05;;;;;;;0.55;0.55;;;13.80;99.90;;;;;;4984673;28;20039;-71
2023/08/08 04:00:31;;;;;;;0.52;0.52;;;13.90;99.90;;;;;;4984234;28;20505;-71
2023/08/08 04:02:56;;;;;;;1.08;0.88;;;13.80;99.90;;;;;;4996411;28;20034;-71
2023/08/08 04:05:22;;;;;;;0.85;0.85;;;13.70;99.90;;;;;;4980502;28;20041;-72
2023/08/08 04:07:48;;;;;;;0.68;0.68;;;13.90;99.90;;;;;;4985186;28;20041;-73
2023/08/08 04:10:14;;;;;;;0.40;0.40;;;13.60;99.90;;;;;;4986330;28;20109;-72
2023/08/08 04:12:39;;;;;;;0.55;0.55;;;13.40;99.90;;;;;;4982948;28;20050;-72
2023/08/08 04:15:05;;;;;;;0.85;0.85;;;13.60;99.90;;;;;;4981730;28;20026;-72
2023/08/08 04:17:31;;;;;;;0.77;0.77;;;13.70;99.90;;;;;;4968509;28;20143;-72
2023/08/08 04:19:57;;;;;;;1.23;1.20;;;13.70;99.90;;;;;;4983589;28;20038;-72
2023/08/08 04:22:22;;;;;;;0.50;0.50;;;13.50;99.90;;;;;;4998134;28;20057;-72
2023/08/08 04:24:48;;;;;;;0.68;0.68;;;13.70;99.90;;;;;;4979045;28;20085;-72
2023/08/08 04:27:14;;;;;;;0.40;0.40;;;13.70;99.90;;;;;;4974158;28;20034;-72
2023/08/08 04:29:39;;;;;;;0.40;0.40;;;13.70;99.90;;;;;;4989100;28;20111;-72
2023/08/08 04:32:05;;;;;;;0.40;0.40;;;13.70;99.90;;;;;;4998531;28;20192;-72
2023/08/08 04:34:31;;;;;;;0.80;0.80;;;13.70;99.90;;;;;;4979784;28;20512;-72
2023/08/08 04:36:57;;;;;;;0.50;0.50;;;13.70;99.90;;;;;;4971187;28;20057;-72
2023/08/08 04:39:22;;;;;;;0.75;0.75;;;13.60;99.90;;;;;;4983220;28;20077;-72
2023/08/08 04:41:48;;;;;;;0.40;0.40;;;13.80;99.90;;;;;;4983031;28;20142;-72
2023/08/08 04:44:13;;;;;;;0.70;0.70;;;13.80;99.90;;;;;;4986842;28;20402;-72
2023/08/08 04:46:39;;;;;;;0.50;0.50;;;13.60;99.90;;;;;;4974714;28;20035;-71
2023/08/08 04:49:05;;;;;;;0.40;0.40;;;13.80;99.90;;;;;;4987998;28;20104;-71
2023/08/08 04:51:31;;;;;;;0.50;0.50;;;13.70;99.90;;;;;;4965860;28;20121;-71
2023/08/08 04:53:56;;;;;;;0.60;0.60;;;13.60;99.90;;;;;;4986501;28;20527;-72
2023/08/08 04:56:22;;;;;;;0.60;0.60;;;13.50;99.90;;;;;;4995811;28;20046;-71
2023/08/08 04:58:48;;;;;;;0.98;0.98;;;13.60;99.90;;;;;;4986975;28;20932;-72
2023/08/08 05:01:15;;;;;;;0.50;0.50;;;13.80;99.90;;;;;;4990199;28;20045;-72
2023/08/08 05:03:41;;;;;;;0.70;0.70;;;13.70;99.90;;;;;;4989145;28;20053;-72
2023/08/08 05:06:07;;;;;;;0.75;0.75;;;13.60;99.90;;;;;;4973552;28;20042;-72
2023/08/08 05:12:13;;;;;;;0.55;0.55;;;14.10;99.90;;;;;;5200329;23;20074;-72
2023/08/08 05:14:39;;;;;;;0.43;0.43;;;13.60;99.90;;;;;;4994925;28;20094;-72
2023/08/08 05:17:05;;;;;;;0.50;0.50;;;13.70;99.90;;;;;;4990402;28;20030;-73
2023/08/08 05:19:30;;;;;;;0.50;0.50;;;13.90;99.90;;;;;;4993581;28;20037;-72
2023/08/08 05:21:56;;;;;;;0.30;0.30;;;13.50;99.90;;;;;;4985808;28;20050;-72
2023/08/08 05:24:22;;;;;;;0.35;0.32;;;13.60;99.90;;;;;;4996225;28;20387;-72
2023/08/08 05:26:48;;;;;;;0.60;0.60;;;13.70;99.90;;;;;;4993566;28;20042;-72
2023/08/08 05:29:13;;;;;;;0.40;0.40;;;13.60;99.90;;;;;;4979909;28;20050;-71
2023/08/08 05:31:39;;;;;;;0.40;0.40;;;13.70;99.90;;;;;;4988659;28;20073;-72
2023/08/08 05:34:05;;;;;;;0.50;0.50;;;13.80;99.90;;;;;;4978536;28;20316;-72
2023/08/08 05:36:30;;;;;;;0.40;0.40;;;13.90;99.90;;;;;;4991949;28;20042;-72
2023/08/08 05:38:56;;;;;;;1.40;1.30;;;13.70;99.90;;;;;;4988267;28;20053;-72
2023/08/08 05:41:22;;;;;;;0.32;0.32;;;13.90;99.90;;;;;;4987925;28;20449;-72
2023/08/08 05:43:47;;;;;;;0.40;0.40;;;13.70;99.90;;;;;;4982974;28;20057;-73
2023/08/08 05:46:13;;;;;;;0.60;0.60;;;13.90;99.90;;;;;;4988758;28;20129;-72
2023/08/08 05:48:38;;;;;;;0.80;0.80;;;14.20;99.90;;;;;;4993086;28;20085;-72
2023/08/08 05:51:05;;;;;;;0.40;0.40;;;14.10;99.90;;;;;;4981517;28;20042;-72
2023/08/08 05:53:32;;;;;;;0.50;0.50;;;14.10;99.90;;;;;;4990997;28;20088;-72
2023/08/08 05:55:57;;;;;;;0.40;0.40;;;14.20;99.90;;;;;;4999338;28;20073;-72
2023/08/08 05:58:23;;;;;;;0.40;0.40;;;14.70;99.90;;;;;;4993235;28;20077;-72
2023/08/08 06:00:50;;;;;;;0.40;0.40;;;14.70;99.90;;;;;;4981295;28;20056;-72
2023/08/08 06:03:16;;;;;;;0.40;0.40;;;14.60;99.90;;;;;;4988118;28;20394;-72
2023/08/08 06:05:42;;;;;;;0.55;0.55;;;14.70;99.90;;;;;;4969818;28;20046;-72
2023/08/08 06:08:11;;;;;;;0.40;0.40;;;14.70;99.90;;;;;;4996123;28;20046;-72
2023/08/08 06:10:37;;;;;;;0.50;0.50;;;14.50;99.90;;;;;;4972147;28;20057;-72
2023/08/08 06:13:03;;;;;;;0.40;0.40;;;14.70;99.90;;;;;;4987403;28;20490;-72
2023/08/08 06:15:29;;;;;;;0.30;0.30;;;14.40;99.90;;;;;;4990345;28;20108;-72
2023/08/08 06:17:55;;;;;;;3.85;1.05;;;14.40;99.90;;;;;;4988689;28;20030;-73
2023/08/08 06:20:21;;;;;;;0.40;0.40;;;14.60;99.90;;;;;;4978168;28;20046;-72
2023/08/08 06:22:47;;;;;;;0.32;0.32;;;14.70;99.90;;;;;;4965104;28;20046;-73
2023/08/08 06:25:13;;;;;;;0.35;0.35;;;14.90;99.90;;;;;;4967954;28;20162;-73
2023/08/08 06:27:38;;;;;;;0.60;0.60;;;14.90;99.90;;;;;;5005277;28;20031;-73
2023/08/08 06:30:05;;;;;;;1.40;1.30;;;15.00;99.90;;;;;;4987573;28;20411;-73
2023/08/08 06:32:30;;;;;;;0.85;0.85;;;14.90;99.90;;;;;;4990468;28;20041;-73
2023/08/08 06:34:56;;;;;;;0.40;0.40;;;14.70;99.90;;;;;;4987965;28;20457;-73
2023/08/08 06:37:22;;;;;;;0.73;0.73;;;14.90;99.90;;;;;;4988551;28;20068;-73
2023/08/08 06:39:47;;;;;;;0.43;0.43;;;14.80;99.90;;;;;;5002770;28;20484;-73
2023/08/08 06:42:13;;;;;;;0.47;0.47;;;14.90;99.90;;;;;;4992792;28;20086;-73
2023/08/08 06:44:44;;;;;;;0.50;0.50;;;14.80;99.90;;;;;;4988274;28;20052;-73
2023/08/08 06:47:11;;;;;;;1.00;0.63;;;14.90;99.90;;;;;;4985622;28;20035;-74
2023/08/08 06:49:37;;;;;;;2.08;1.17;;;15.30;99.90;;;;;;4989067;28;20041;-71
2023/08/08 06:52:04;;;;;;;0.30;0.30;;;15.40;99.90;;;;;;4966539;28;20129;-73
2023/08/08 06:54:30;;;;;;;0.43;0.43;;;15.30;99.90;;;;;;4971912;28;20034;-73
2023/08/08 06:56:58;;;;;;;0.30;0.30;;;15.40;99.90;;;;;;4995083;28;20057;-72
2023/08/08 06:59:24;;;;;;;0.40;0.40;;;15.70;99.90;;;;;;4981705;28;20042;-72
2023/08/08 07:01:50;;;;;;;0.30;0.30;;;16.10;99.90;;;;;;4969839;28;20042;-72
2023/08/08 07:04:17;;;;;;;0.77;0.77;;;16.20;99.90;;;;;;4986689;28;20034;-73
2023/08/08 07:06:47;;;;;;;0.60;0.60;;;16.30;99.90;;;;;;4996075;28;20444;-73
2023/08/08 07:09:14;;;;;;;0.70;0.70;;;16.20;99.90;;;;;;4985855;28;20050;-70
2023/08/08 07:11:40;;;;;;;0.35;0.35;;;16.30;99.90;;;;;;4985293;28;20434;-72
2023/08/08 07:14:06;;;;;;;0.50;0.50;;;16.80;99.90;;;;;;4985729;28;20096;-73
2023/08/08 07:16:32;;;;;;;0.30;0.30;;;16.70;99.90;;;;;;4988235;28;20505;-73
2023/08/08 07:18:58;;;;;;;0.93;0.93;;;16.90;99.90;;;;;;5002065;28;20046;-72
2023/08/08 07:21:23;;;;;;;0.40;0.40;;;17.00;99.90;;;;;;4985067;28;20065;-80
2023/08/08 07:23:49;;;;;;;0.30;0.30;;;17.20;99.90;;;;;;4985870;28;20034;-74
2023/08/08 07:26:15;;;;;;;0.40;0.40;;;17.60;99.90;;;;;;4988534;28;20038;-75
2023/08/08 07:28:40;;;;;;;0.30;0.30;;;17.50;99.90;;;;;;4988221;28;20248;-72
2023/08/08 07:31:50;;;;;;;1.27;0.60;;;17.80;99.90;;;;;;4973679;28;20035;-72
2023/08/08 07:34:16;;;;;;;0.30;0.30;;;18.20;99.90;;;;;;4971736;28;20049;-72
2023/08/08 07:36:41;;;;;;;0.30;0.30;;;18.20;99.90;;;;;;4991165;28;20038;-72
2023/08/08 07:39:07;;;;;;;0.38;0.38;;;18.20;99.90;;;;;;4992579;28;20593;-71
2023/08/08 07:41:33;;;;;;;0.40;0.40;;;18.60;99.90;;;;;;4989853;28;20504;-68
2023/08/08 07:43:58;;;;;;;0.30;0.30;;;18.50;99.90;;;;;;4984925;28;20401;-72
2023/08/08 07:46:24;;;;;;;0.30;0.30;;;19.10;99.90;;;;;;4986816;28;20049;-72
2023/08/08 07:48:50;;;;;;;0.40;0.40;;;19.20;99.90;;;;;;4970505;28;20053;-71
2023/08/08 07:51:15;;;;;;;0.40;0.40;;;19.20;99.90;;;;;;4971630;28;20034;-71
2023/08/08 07:53:41;;;;;;;0.30;0.30;;;19.20;99.90;;;;;;4971652;28;20191;-71
2023/08/08 07:56:07;;;;;;;0.35;0.35;;;19.10;99.90;;;;;;4977302;28;20034;-70
2023/08/08 07:58:33;;;;;;;0.40;0.40;;;19.50;99.90;;;;;;4988750;28;20046;-71
2023/08/08 08:00:59;;;;;;;0.43;0.43;;;19.00;99.90;;;;;;4996198;28;20102;-73
2023/08/08 08:03:26;;;;;;;0.63;0.63;;;19.20;99.90;;;;;;4997732;28;20037;-72
2023/08/08 08:05:51;;;;;;;0.40;0.40;;;19.40;99.90;;;;;;5010177;28;20042;-73
2023/08/08 08:08:17;;;;;;;0.60;0.60;;;19.10;99.90;;;;;;4996705;28;20041;-72
2023/08/08 08:10:43;;;;;;;0.32;0.32;;;19.00;99.90;;;;;;4967147;28;20030;-72
2023/08/08 08:13:10;;;;;;;0.85;0.85;;;19.10;99.90;;;;;;4985697;28;20057;-73
2023/08/08 08:15:36;;;;;;;0.40;0.40;;;19.00;99.90;;;;;;4989695;28;20128;-70
2023/08/08 08:18:02;;;;;;;0.43;0.43;;;19.30;99.90;;;;;;5016228;28;20085;-72
2023/08/08 08:20:27;;;;;;;0.30;0.30;;;19.00;99.90;;;;;;4989514;28;20410;-72
2023/08/08 08:22:53;;;;;;;0.50;0.50;;;18.90;99.90;;;;;;4994503;28;20110;-72
2023/08/08 08:25:19;;;;;;;0.40;0.40;;;19.00;99.90;;;;;;4997234;28;20045;-72
2023/08/08 08:27:44;;;;;;;0.68;0.68;;;19.00;99.90;;;;;;4996769;28;20048;-72
2023/08/08 08:30:11;;;;;;;0.40;0.40;;;19.00;99.90;;;;;;4992225;28;20088;-72
2023/08/08 08:32:39;;;;;;;0.50;0.50;;;19.10;99.90;;;;;;4998213;28;20062;-73
2023/08/08 08:35:06;;;;;;;;;;;19.20;99.90;;;;;;4986318;28;20402;-76
2023/08/08 08:37:32;;;;;;;0.60;0.60;;;19.20;99.90;;;;;;4990269;28;20048;-72
2023/08/08 08:39:58;;;;;;;0.40;0.40;;;19.30;99.90;;;;;;5015589;28;20045;-71
2023/08/08 08:42:24;;;;;;;0.40;0.40;;;19.20;99.90;;;;;;4991488;28;20038;-72
2023/08/08 08:44:51;;;;;;;0.43;0.43;;;19.40;99.90;;;;;;4989298;28;20056;-72
2023/08/08 08:47:19;;;;;;;0.45;0.45;;;19.40;99.90;;;;;;4977625;28;20050;-72
2023/08/08 08:49:45;;;;;;;0.40;0.40;;;19.50;99.90;;;;;;4987972;28;20410;-72
2023/08/08 08:52:12;;;;;;;0.73;0.73;;;19.90;99.90;;;;;;4994624;28;20470;-72
2023/08/08 08:54:38;;;;;;;0.50;0.50;;;19.70;99.90;;;;;;4978001;28;20034;-72
2023/08/08 08:57:04;;;;;;;0.50;0.50;;;20.00;99.90;;;;;;4987762;28;20052;-71
2023/08/08 08:59:30;;;;;;;0.55;0.50;;;19.60;99.90;;;;;;4987827;28;20089;-72
2023/08/08 09:01:57;;;;;;;0.40;0.40;;;19.60;99.90;;;;;;4988483;28;20082;-73
2023/08/08 09:04:23;;;;;;;0.40;0.40;;;19.50;99.90;;;;;;4988227;28;20049;-73
2023/08/08 09:06:50;;;;;;;0.40;0.40;;;19.50;99.90;;;;;;4984228;28;20038;-73
2023/08/08 09:09:17;;;;;;;0.43;0.43;;;19.80;99.90;;;;;;4981916;28;20034;-72
2023/08/08 09:11:48;;;;;;;0.50;0.50;;;19.10;99.90;;;;;;4990595;28;20505;-72
2023/08/08 09:14:18;;;;;;;0.57;0.57;;;18.90;99.90;;;;;;4967035;28;20057;-72
2023/08/08 09:16:43;;;;;;;0.30;0.30;;;18.80;99.90;;;;;;4999532;28;20105;-72
2023/08/08 09:19:09;;;;;;;0.40;0.40;;;18.80;99.90;;;;;;5010712;28;20038;-72
2023/08/08 09:21:35;;;;;;;0.60;0.60;;;18.70;99.90;;;;;;4982666;28;20144;-72
2023/08/08 09:24:00;;;;;;;0.30;0.30;;;19.00;99.90;;;;;;4996796;28;20043;-72
2023/08/08 09:26:27;;;;;;;0.40;0.40;;;18.50;99.90;;;;;;4988852;28;20401;-72
2023/08/08 09:28:53;;;;;;;0.40;0.40;;;18.50;99.90;;;;;;5001378;28;20042;-73
2023/08/08 09:31:19;;;;;;;0.35;0.35;;;18.60;99.90;;;;;;5002978;28;20521;-73
2023/08/08 09:33:48;;;;;;;0.30;0.30;;;18.40;99.90;;;;;;4981596;28;20049;-70
2023/08/08 09:36:16;;;;;;;0.30;0.30;;;18.10;99.90;;;;;;4987965;28;20052;-70
2023/08/08 09:38:49;;;;;;;0.40;0.40;;;17.80;99.90;;;;;;4988172;28;20505;-73
2023/08/08 09:41:15;;;;;;;0.30;0.30;;;17.70;99.90;;;;;;4985622;28;20050;-71
2023/08/08 09:43:44;;;;;;;0.80;0.80;;;17.60;99.90;;;;;;4986510;28;20489;-77
2023/08/08 09:46:10;;;;;;;0.30;0.30;;;17.50;99.90;;;;;;4994685;28;20053;-74
2023/08/08 09:48:40;;;;;;;0.30;0.30;;;17.40;99.90;;;;;;4988441;28;20030;-75
2023/08/08 09:51:07;;;;;;;0.30;0.30;;;17.50;99.90;;;;;;4991054;28;20056;-71
2023/08/08 09:53:34;;;;;;;0.35;0.35;;;17.70;99.90;;;;;;4990275;28;20454;-72
2023/08/08 09:56:02;;;;;;;0.52;0.30;;;17.90;99.90;;;;;;4969252;28;20046;-74
2023/08/08 09:58:28;;;;;;;0.20;0.20;;;18.30;99.90;;;;;;4991235;28;20034;-71
2023/08/08 10:00:54;;;;;;;0.85;0.63;;;18.90;99.90;;;;;;4988308;28;20072;-71
2023/08/08 10:03:20;;;;;;;0.40;0.40;;;19.10;99.90;;;;;;4995792;28;20127;-72
2023/08/08 10:05:47;;;;;;;0.40;0.40;;;19.40;99.90;;;;;;4969636;28;20052;-72
2023/08/08 10:08:15;;;;;;;0.40;0.40;;;19.20;99.90;;;;;;4999025;28;20080;-72
2023/08/08 10:10:44;;;;;;;0.50;0.50;;;19.50;99.90;;;;;;5004640;28;20042;-74
2023/08/08 10:13:10;;;;;;;0.30;0.30;;;19.50;99.90;;;;;;4988792;28;20064;-72
2023/08/08 10:15:39;;;;;;;0.30;0.30;;;18.50;99.90;;;;;;5002444;28;20042;-76
2023/08/08 10:18:06;;;;;;;0.50;0.50;;;19.90;99.90;;;;;;4987433;28;20069;-72
2023/08/08 10:20:35;;;;;;;0.52;0.52;;;;;;;;;;4995314;28;20054;-72
2023/08/08 10:23:02;;;;;;;0.35;0.35;;;20.30;99.90;;;;;;4991551;28;20057;-76
2023/08/08 10:25:30;;;;;;;0.50;0.50;;;20.20;99.90;;;;;;4997353;28;20084;-72
2023/08/08 10:28:08;;;;;;;0.60;0.60;;;20.70;99.90;;;;;;4986948;28;20137;-72
2023/08/08 10:30:47;;;;;;;0.40;0.40;;;;;;;;;;4973961;28;20062;-76
2023/08/08 10:33:20;;;;;;;0.82;0.82;;;;;;;;;;4985817;28;21675;-76
2023/08/08 10:35:56;;;;;;;1.35;1.25;;;;;;;;;;4986262;28;20035;-72
2023/08/08 10:38:25;;;;;;;0.70;0.70;;;19.90;99.90;;;;;;4975306;28;20168;-72
2023/08/08 10:40:58;;;;;;;0.70;0.70;;;;;;;;;;4991687;28;20046;-72
2023/08/08 10:43:29;;;;;;;2.15;1.52;;;19.60;99.90;;;;;;4972473;28;20039;-72
2023/08/08 10:46:02;;;;;;;0.30;0.30;;;19.50;99.90;;;;;;4994932;28;20042;-74
2023/08/08 10:48:28;;;;;;;0.40;0.40;;;19.60;99.90;;;;;;5000679;28;20038;-76
2023/08/08 10:51:01;;;;;;;0.40;0.40;;;;;;;;;;4988602;28;20053;-78
2023/08/08 10:53:28;;;;;;;0.50;0.50;;;;;;;;;;4967848;28;20030;-73
2023/08/08 10:56:01;;;;;;;0.75;0.75;;;;;;;;;;4986350;28;20052;-72
2023/08/08 10:58:37;;;;;;;0.40;0.40;;;;;;;;;;4978927;28;20038;-73
2023/08/08 11:01:07;;;;;;;0.55;0.55;;;;;;;;;;4985453;28;20046;-76
2023/08/08 11:03:34;;;;;;;0.68;0.60;;;20.40;99.90;;;;;;4992392;28;20100;-81
2023/08/08 11:06:03;;;;;;;0.60;0.60;;;20.60;99.90;;;;;;4985578;28;20684;-73
2023/08/08 11:08:33;;;;;;;0.77;0.77;;;20.80;99.90;;;;;;4984705;28;20437;-73
2023/08/08 11:10:59;;;;;;;0.63;0.63;;;;;;;;;;4975111;28;20049;-75
2023/08/08 11:13:26;;;;;;;0.60;0.60;;;21.10;99.90;;;;;;5013769;28;20050;-73
2023/08/08 11:15:52;;;;;;;0.40;0.40;;;;;;;;;;4989309;28;20084;-77
2023/08/08 11:18:18;;;;;;;0.57;0.57;;;;;;;;;;4971531;28;20041;-76
2023/08/08 11:20:44;;;;;;;0.43;0.43;;;21.20;99.90;;;;;;4986782;28;20039;-72
2023/08/08 11:23:12;;;;;;;0.30;0.30;;;20.60;99.90;;;;;;4974140;28;20145;-74
2023/08/08 11:25:44;;;;;;;0.50;0.50;;;20.50;99.90;;;;;;4997477;28;20422;-74
2023/08/08 11:28:10;;;;;;;0.40;0.40;;;20.50;99.90;;;;;;5012240;28;20045;-75
2023/08/08 11:30:43;;;;;;;0.80;0.80;;;20.30;99.90;;;;;;4988919;28;20096;-74
2023/08/08 11:33:12;;;;;;;0.77;0.77;;;20.20;99.90;;;;;;5001494;28;20038;-76
2023/08/08 11:35:43;;;;;;;0.40;0.40;;;20.40;99.90;;;;;;5000346;28;20043;-73
2023/08/08 11:38:09;;;;;;;0.75;0.75;;;20.00;99.90;;;;;;4996344;28;20033;-81
2023/08/08 11:40:35;;;;;;;1.55;0.80;;;20.10;99.90;;;;;;4994087;28;20537;-75
2023/08/08 11:43:01;;;;;;;0.30;0.30;;;20.70;99.90;;;;;;4995759;28;20042;-72
2023/08/08 11:45:27;;;;;;;1.27;0.98;;;20.40;99.90;;;;;;4990844;28;20030;-73
2023/08/08 11:47:54;;;;;;;0.52;0.40;;;20.20;99.90;;;;;;4990223;28;20391;-74
2023/08/08 11:50:24;;;;;;;0.80;0.80;;;20.40;99.90;;;;;;4998152;28;20096;-75
2023/08/08 11:52:53;;;;;;;0.30;0.30;;;20.70;99.90;;;;;;4989549;28;20034;-75
2023/08/08 11:55:22;;;;;;;0.55;0.55;;;20.80;99.90;;;;;;4976163;28;20045;-74
2023/08/08 11:57:49;;;;;;;0.50;0.50;;;20.90;99.90;;;;;;4990389;28;20050;-74
2023/08/08 12:00:15;;;;;;;0.40;0.40;;;20.90;99.90;;;;;;4990969;28;20042;-75
2023/08/08 12:02:45;;;;;;;0.40;0.40;;;21.20;99.90;;;;;;5007123;28;20296;-78
2023/08/08 12:05:21;;;;;;;0.50;0.50;;;21.50;99.90;;;;;;4991816;28;20081;-75
2023/08/08 12:07:48;;;;;;;0.40;0.40;;;21.30;99.90;;;;;;4994898;28;20084;-74
2023/08/08 12:10:17;;;;;;;0.30;0.30;;;21.70;99.90;;;;;;4990198;28;20504;-74
2023/08/08 12:16:39;;;;;;;0.55;0.55;;;22.20;99.90;;;;;;5367403;23;20141;-78
2023/08/08 12:19:09;;;;;;;0.52;0.52;;;22.00;99.90;;;;;;4996734;28;20116;-79
2023/08/08 12:21:35;;;;;;;0.47;0.47;;;21.80;99.90;;;;;;4974817;28;20042;-75
2023/08/08 12:24:01;;;;;;;0.40;0.40;;;21.60;99.90;;;;;;4956747;28;20043;-72
2023/08/08 12:26:26;;;;;;;0.60;0.60;;;21.70;99.90;;;;;;4969100;28;20043;-73
2023/08/08 12:28:53;;;;;;;0.38;0.38;;;21.60;99.90;;;;;;4952330;28;20049;-74
2023/08/08 12:31:20;;;;;;;0.40;0.40;;;21.80;99.90;;;;;;4970030;28;20126;-73
2023/08/08 12:33:45;;;;;;;0.40;0.40;;;21.70;99.90;;;;;;4968431;28;20502;-71
2023/08/08 12:36:12;;;;;;;0.50;0.50;;;21.90;99.90;;;;;;4972443;28;20045;-71
2023/08/08 12:38:37;;;;;;;0.40;0.40;;;22.10;99.90;;;;;;4971430;28;20450;-73
2023/08/08 12:41:03;;;;;;;0.40;0.40;;;22.30;99.90;;;;;;4961042;28;20042;-72
2023/08/08 12:43:29;;;;;;;0.40;0.40;;;22.40;99.90;;;;;;4966806;28;20132;-70
2023/08/08 12:45:54;;;;;;;0.38;0.38;;;22.60;99.90;;;;;;4947591;28;20129;-70
2023/08/08 12:48:20;;;;;;;0.40;0.40;;;22.60;99.90;;;;;;4970126;28;20047;-71
2023/08/08 12:50:46;;;;;;;0.40;0.40;;;22.40;99.90;;;;;;4970504;28;20047;-72
2023/08/08 12:53:11;;;;;;;0.30;0.30;;;22.60;99.90;;;;;;4981513;28;20046;-71
2023/08/08 12:55:39;;;;;;;0.35;0.35;;;22.50;99.90;;;;;;4975495;28;20081;-70